createdAt,value
2023-03-03T00:00:43.425Z,69.53
2023-03-03T00:03:11.945Z,70.32
2023-03-03T00:05:40.532Z,68.41
2023-03-03T00:08:09.566Z,68.71
2023-03-03T00:10:37.228Z,69.17
2023-03-03T00:13:04.739Z,68.62
2023-03-03T00:15:32.333Z,68.40
2023-03-03T00:17:59.879Z,67.59
2023-03-03T00:20:28.641Z,68.96
2023-03-03T00:22:56.351Z,69.01
2023-03-03T00:25:29.647Z,69.02
2023-03-03T00:27:57.126Z,69.09
2023-03-03T00:30:25.425Z,69.15
2023-03-03T00:32:53.250Z,69.47
2023-03-03T00:35:24.609Z,66.98
2023-03-03T00:37:53.073Z,68.46
2023-03-03T00:40:23.844Z,69.87
2023-03-03T00:42:53.506Z,69.59
2023-03-03T00:45:25.546Z,69.60
2023-03-03T00:47:53.098Z,69.53
2023-03-03T00:50:28.478Z,69.65
2023-03-03T00:53:01.242Z,69.24
2023-03-03T00:55:28.963Z,70.62
2023-03-03T00:57:57.835Z,69.70
2023-03-03T01:00:25.278Z,70.03
2023-03-03T01:02:53.153Z,69.63
2023-03-03T01:05:20.772Z,69.30
2023-03-03T01:07:48.296Z,69.11
2023-03-03T01:10:15.813Z,69.45
2023-03-03T01:12:43.446Z,69.56
2023-03-03T01:15:12.891Z,69.64
2023-03-03T01:17:41.657Z,68.48
2023-03-03T01:20:10.032Z,68.72
2023-03-03T01:22:37.614Z,69.46
2023-03-03T01:25:05.347Z,69.93
2023-03-03T01:27:32.850Z,69.64
2023-03-03T01:30:00.492Z,69.57
2023-03-03T01:32:29.950Z,68.69
2023-03-03T01:34:57.492Z,68.82
2023-03-03T01:37:24.973Z,69.62
2023-03-03T01:39:52.797Z,69.96
2023-03-03T01:42:20.508Z,69.73
2023-03-03T01:44:48.205Z,69.41
2023-03-03T01:47:15.878Z,69.99
2023-03-03T01:49:45.361Z,69.61
2023-03-03T01:52:13.955Z,69.18
2023-03-03T01:54:42.742Z,70.15
2023-03-03T01:57:12.214Z,66.01
2023-03-03T01:59:41.695Z,67.23
2023-03-03T02:02:09.260Z,67.57
2023-03-03T02:04:36.804Z,69.10
2023-03-03T02:07:11.254Z,68.48
2023-03-03T02:09:41.321Z,69.67
2023-03-03T02:12:09.550Z,66.65
2023-03-03T02:14:37.080Z,67.96
2023-03-03T02:17:04.697Z,68.11
2023-03-03T02:19:34.507Z,68.36
2023-03-03T02:22:03.256Z,69.83
2023-03-03T02:24:33.629Z,69.28
2023-03-03T02:27:02.493Z,68.99
2023-03-03T02:29:29.998Z,69.14
2023-03-03T02:31:57.683Z,73.19
2023-03-03T02:34:25.478Z,71.42
2023-03-03T02:36:52.943Z,69.95
2023-03-03T02:39:23.970Z,72.05
2023-03-03T02:41:53.238Z,70.42
2023-03-03T02:44:22.722Z,69.57
2023-03-03T02:46:50.679Z,70.02
2023-03-03T02:49:19.274Z,70.75
2023-03-03T02:51:46.759Z,70.52
2023-03-03T02:54:15.063Z,70.25
2023-03-03T02:56:42.610Z,70.47
2023-03-03T02:59:10.359Z,68.96
2023-03-03T03:01:39.275Z,71.03
2023-03-03T03:04:08.351Z,70.89
2023-03-03T03:06:36.803Z,71.41
2023-03-03T03:09:04.470Z,70.85
2023-03-03T03:11:31.938Z,70.63
2023-03-03T03:13:59.513Z,71.36
2023-03-03T03:16:27.038Z,70.83
2023-03-03T03:18:56.721Z,70.64
2023-03-03T03:21:24.256Z,70.32
2023-03-03T03:23:51.770Z,70.04
2023-03-03T03:26:21.044Z,68.61
2023-03-03T03:28:48.633Z,68.22
2023-03-03T03:31:16.186Z,69.48
2023-03-03T03:33:43.641Z,69.37
2023-03-03T03:36:12.591Z,69.15
2023-03-03T03:38:40.150Z,67.46
2023-03-03T03:41:07.867Z,69.27
2023-03-03T03:43:35.378Z,68.56
2023-03-03T03:46:02.901Z,69.29
2023-03-03T03:48:30.481Z,69.66
2023-03-03T03:50:58.118Z,69.56
2023-03-03T03:53:27.166Z,70.35
2023-03-03T03:55:54.622Z,69.18
2023-03-03T03:58:22.499Z,70.19
2023-03-03T04:00:49.972Z,68.95
2023-03-03T04:03:17.760Z,70.59
2023-03-03T04:05:45.275Z,69.36
2023-03-03T04:08:12.943Z,70.05
2023-03-03T04:10:41.806Z,70.19
2023-03-03T04:13:09.296Z,69.55
2023-03-03T04:15:36.861Z,69.72
2023-03-03T04:18:04.658Z,70.27
2023-03-03T04:20:32.303Z,70.36
2023-03-03T04:22:59.774Z,71.42
2023-03-03T04:25:27.324Z,70.56
2023-03-03T04:27:56.257Z,70.36
2023-03-03T04:30:23.747Z,70.68
2023-03-03T04:32:51.236Z,70.14
2023-03-03T04:35:18.953Z,69.54
2023-03-03T04:37:46.437Z,69.27
2023-03-03T04:40:13.996Z,69.80
2023-03-03T04:42:41.466Z,69.71
2023-03-03T04:45:10.986Z,69.61
2023-03-03T04:47:38.611Z,69.89
2023-03-03T04:50:06.596Z,72.25
2023-03-03T04:52:34.195Z,69.98
2023-03-03T04:55:01.709Z,70.94
2023-03-03T04:57:29.183Z,69.78
2023-03-03T04:59:56.642Z,70.31
2023-03-03T05:02:25.502Z,70.32
2023-03-03T05:04:53.214Z,69.27
2023-03-03T05:07:20.948Z,68.97
2023-03-03T05:09:48.416Z,70.16
2023-03-03T05:12:15.878Z,69.48
2023-03-03T05:14:43.459Z,70.41
2023-03-03T05:17:10.961Z,69.93
2023-03-03T05:19:39.770Z,70.55
2023-03-03T05:22:07.219Z,69.96
2023-03-03T05:24:34.750Z,68.59
2023-03-03T05:27:03.368Z,70.06
2023-03-03T05:29:31.562Z,71.18
2023-03-03T05:31:59.122Z,70.23
2023-03-03T05:34:26.639Z,70.28
2023-03-03T05:36:55.581Z,70.15
2023-03-03T05:39:23.289Z,69.39
2023-03-03T05:41:50.760Z,68.60
2023-03-03T05:44:20.510Z,68.76
2023-03-03T05:46:48.240Z,70.03
2023-03-03T05:49:15.772Z,69.55
2023-03-03T05:51:43.325Z,70.21
2023-03-03T05:54:13.080Z,69.76
2023-03-03T05:56:40.559Z,70.01
2023-03-03T05:59:08.066Z,69.93
2023-03-03T06:01:35.652Z,69.21
2023-03-03T06:04:03.187Z,69.40
2023-03-03T06:06:30.700Z,70.05
2023-03-03T06:08:58.225Z,68.54
2023-03-03T06:11:27.377Z,68.98
2023-03-03T06:13:54.953Z,69.88
2023-03-03T06:16:22.459Z,67.13
2023-03-03T06:18:50.041Z,69.52
2023-03-03T06:21:17.531Z,69.87
2023-03-03T06:23:45.056Z,70.68
2023-03-03T06:26:12.573Z,69.92
2023-03-03T06:28:41.433Z,69.75
2023-03-03T06:31:08.868Z,70.14
2023-03-03T06:33:36.516Z,70.44
2023-03-03T06:36:05.798Z,70.47
2023-03-03T06:38:33.381Z,68.38
2023-03-03T06:41:02.163Z,69.48
2023-03-03T06:43:29.682Z,69.77
2023-03-03T06:45:58.662Z,70.66
2023-03-03T06:48:26.162Z,70.70
2023-03-03T06:50:53.655Z,69.73
2023-03-03T06:53:21.180Z,69.89
2023-03-03T06:55:48.651Z,69.30
2023-03-03T06:58:17.393Z,68.14
2023-03-03T07:00:45.391Z,67.76
2023-03-03T07:03:15.694Z,68.26
2023-03-03T07:05:43.330Z,70.09
2023-03-03T07:08:12.403Z,70.00
2023-03-03T07:10:39.898Z,68.62
2023-03-03T07:13:13.630Z,68.39
2023-03-03T07:15:41.181Z,69.07
2023-03-03T07:18:10.830Z,69.83
2023-03-03T07:20:41.110Z,70.24
2023-03-03T07:23:11.445Z,70.42
2023-03-03T07:25:38.932Z,70.54
2023-03-03T07:28:12.360Z,71.93
2023-03-03T07:30:39.822Z,68.88
2023-03-03T07:33:09.565Z,70.01
2023-03-03T07:35:38.662Z,70.68
2023-03-03T07:38:14.265Z,70.11
2023-03-03T07:40:42.463Z,69.07
2023-03-03T07:43:18.344Z,68.91
2023-03-03T07:45:45.915Z,69.97
2023-03-03T07:48:17.775Z,70.98
2023-03-03T07:50:45.386Z,71.35
2023-03-03T07:53:16.213Z,69.62
2023-03-03T07:55:45.773Z,69.22
2023-03-03T07:58:18.685Z,70.33
2023-03-03T08:01:13.519Z,69.50
2023-03-03T08:03:41.006Z,69.35
2023-03-03T08:06:10.999Z,70.75
2023-03-03T08:08:43.751Z,70.52
2023-03-03T08:11:11.228Z,70.72
2023-03-03T08:13:39.402Z,68.74
2023-03-03T08:16:19.868Z,72.39
2023-03-03T08:18:47.854Z,72.54
2023-03-03T08:21:15.409Z,71.61
2023-03-03T08:23:44.824Z,71.78
2023-03-03T08:26:13.982Z,70.70
2023-03-03T08:28:41.579Z,71.04
2023-03-03T08:31:18.465Z,71.08
2023-03-03T08:33:49.935Z,71.56
2023-03-03T08:36:17.410Z,71.24
2023-03-03T08:38:46.289Z,71.30
2023-03-03T08:41:13.946Z,71.12
2023-03-03T08:43:41.462Z,71.19
2023-03-03T08:46:10.331Z,70.94
2023-03-03T08:48:37.927Z,71.16
2023-03-03T08:51:05.989Z,68.95
2023-03-03T08:53:36.371Z,68.34
2023-03-03T08:56:05.413Z,69.79
2023-03-03T08:58:35.430Z,70.56
2023-03-03T09:01:03.578Z,70.14
2023-03-03T09:03:31.052Z,70.38
2023-03-03T09:05:58.585Z,70.59
2023-03-03T09:08:26.166Z,70.65
2023-03-03T09:10:53.601Z,70.85
2023-03-03T09:13:22.465Z,70.87
2023-03-03T09:15:50.506Z,69.21
2023-03-03T09:18:18.789Z,68.83
2023-03-03T09:20:46.552Z,70.19
2023-03-03T09:23:37.931Z,69.54
2023-03-03T09:26:27.085Z,70.74
2023-03-03T09:28:56.505Z,68.01
2023-03-03T09:31:26.782Z,70.02
2023-03-03T09:33:57.724Z,69.06
2023-03-03T09:36:26.251Z,69.53
2023-03-03T09:38:54.202Z,69.88
2023-03-03T09:41:40.451Z,69.28
2023-03-03T09:44:22.550Z,69.29
2023-03-03T09:46:53.664Z,69.22
2023-03-03T09:49:26.297Z,68.90
2023-03-03T09:51:57.318Z,69.39
2023-03-03T09:54:48.838Z,69.37
2023-03-03T09:57:17.244Z,70.14
2023-03-03T09:59:52.873Z,69.23
2023-03-03T10:02:24.056Z,69.70
2023-03-03T10:05:00.120Z,68.41
2023-03-03T10:07:29.108Z,68.46
2023-03-03T10:10:23.600Z,68.74
2023-03-03T10:12:53.805Z,67.53
2023-03-03T10:15:31.464Z,67.45
2023-03-03T10:17:59.958Z,68.47
2023-03-03T10:20:40.506Z,68.73
2023-03-03T10:23:21.114Z,69.25
2023-03-03T10:25:51.916Z,66.81
2023-03-03T10:28:22.437Z,67.96
2023-03-03T10:31:04.802Z,67.72
2023-03-03T10:33:38.075Z,67.87
2023-03-03T10:36:23.247Z,68.03
2023-03-03T10:38:56.802Z,68.25
2023-03-03T10:41:28.513Z,68.73
2023-03-03T10:43:59.734Z,68.89
2023-03-03T10:46:34.980Z,69.77
2023-03-03T10:49:16.209Z,68.76
2023-03-03T10:51:45.617Z,68.25
2023-03-03T10:54:20.126Z,67.91
2023-03-03T10:56:53.440Z,66.93
2023-03-03T10:59:32.452Z,67.96
2023-03-03T11:02:02.283Z,66.00
2023-03-03T11:04:41.466Z,64.92
2023-03-03T11:07:10.178Z,65.82
2023-03-03T11:09:44.598Z,65.43
2023-03-03T11:12:16.397Z,65.06
2023-03-03T11:14:47.755Z,65.13
2023-03-03T11:17:17.665Z,64.00
2023-03-03T11:19:48.767Z,64.06
2023-03-03T11:22:19.913Z,65.19
2023-03-03T11:24:51.130Z,64.83
2023-03-03T11:27:27.459Z,64.74
2023-03-03T11:29:59.138Z,65.38
2023-03-03T11:32:32.167Z,64.77
2023-03-03T11:35:01.668Z,64.97
2023-03-03T11:37:30.518Z,64.74
2023-03-03T11:39:59.150Z,64.81
2023-03-03T11:42:27.740Z,64.93
2023-03-03T11:44:56.408Z,64.25
2023-03-03T11:47:26.674Z,64.20
2023-03-03T11:49:57.446Z,64.13
2023-03-03T11:52:26.788Z,64.02
2023-03-03T11:54:55.395Z,63.92
2023-03-03T11:57:23.954Z,63.29
2023-03-03T11:59:54.970Z,63.35
2023-03-03T12:02:32.139Z,63.16
2023-03-03T12:05:01.329Z,64.06
2023-03-03T12:07:30.915Z,64.52
2023-03-03T12:10:01.747Z,63.37
2023-03-03T12:12:30.665Z,63.19
2023-03-03T12:15:04.244Z,63.85
2023-03-03T12:17:40.873Z,63.83
2023-03-03T12:20:11.071Z,64.15
2023-03-03T12:22:39.580Z,63.33
2023-03-03T12:25:13.324Z,63.90
2023-03-03T12:27:42.269Z,63.66
2023-03-03T12:30:13.220Z,63.03
2023-03-03T12:32:47.028Z,62.64
2023-03-03T12:35:17.296Z,63.05
2023-03-03T12:37:48.187Z,63.57
2023-03-03T12:40:18.252Z,63.84
2023-03-03T12:42:51.916Z,64.00
2023-03-03T12:45:29.259Z,63.68
2023-03-03T12:47:57.940Z,62.49
2023-03-03T12:50:28.811Z,62.80
2023-03-03T12:52:58.695Z,63.17
2023-03-03T12:55:27.807Z,63.88
2023-03-03T12:57:57.110Z,64.08
2023-03-03T13:00:25.880Z,63.18
2023-03-03T13:03:11.088Z,63.84
2023-03-03T13:05:45.919Z,63.84
2023-03-03T13:08:22.338Z,63.76
2023-03-03T13:10:50.912Z,63.52
2023-03-03T13:13:19.273Z,63.59
2023-03-03T13:15:55.416Z,64.12
2023-03-03T13:18:28.353Z,63.45
2023-03-03T13:20:58.437Z,63.73
2023-03-03T13:23:31.821Z,63.75
2023-03-03T13:25:59.916Z,63.40
2023-03-03T13:28:29.784Z,63.41
2023-03-03T13:30:58.146Z,63.47
2023-03-03T13:33:27.178Z,63.52
2023-03-03T13:35:55.407Z,63.58
2023-03-03T13:38:25.151Z,63.18
2023-03-03T13:40:53.938Z,63.53
2023-03-03T13:43:23.061Z,63.80
2023-03-03T13:45:59.325Z,63.96
2023-03-03T13:48:32.487Z,64.18
2023-03-03T13:51:00.997Z,64.97
2023-03-03T13:53:38.203Z,64.56
2023-03-03T13:56:08.863Z,65.03
2023-03-03T13:58:38.404Z,64.88
2023-03-03T14:01:07.729Z,65.04
2023-03-03T14:03:55.103Z,64.50
2023-03-03T14:06:23.447Z,64.27
2023-03-03T14:08:55.752Z,63.93
2023-03-03T14:11:25.050Z,64.16
2023-03-03T14:13:55.031Z,64.82
2023-03-03T14:16:24.029Z,63.89
2023-03-03T14:18:55.352Z,63.92
2023-03-03T14:21:25.207Z,64.68
2023-03-03T14:23:57.217Z,64.96
2023-03-03T14:26:24.722Z,65.32
2023-03-03T14:28:54.218Z,64.81
2023-03-03T14:31:23.159Z,64.71
2023-03-03T14:34:00.832Z,64.77
2023-03-03T14:36:30.490Z,64.47
2023-03-03T14:38:59.785Z,64.27
2023-03-03T14:41:37.404Z,65.04
2023-03-03T14:44:19.804Z,64.44
2023-03-03T14:46:47.337Z,64.67
2023-03-03T14:49:15.898Z,64.34
2023-03-03T14:51:44.282Z,64.82
2023-03-03T14:54:22.593Z,64.66
2023-03-03T14:56:57.435Z,64.00
2023-03-03T14:59:26.729Z,64.21
2023-03-03T15:01:58.183Z,64.20
2023-03-03T15:04:26.087Z,64.16
2023-03-03T15:06:54.229Z,64.03
2023-03-03T15:09:27.832Z,64.10
2023-03-03T15:11:56.011Z,64.11
2023-03-03T15:14:30.334Z,64.36
2023-03-03T15:16:58.304Z,64.18
2023-03-03T15:19:30.974Z,63.76
2023-03-03T15:22:01.118Z,64.02
2023-03-03T15:24:32.590Z,64.62
2023-03-03T15:27:00.987Z,64.08
2023-03-03T15:29:30.529Z,64.31
2023-03-03T15:31:59.233Z,63.79
2023-03-03T15:34:28.782Z,64.33
2023-03-03T15:36:58.264Z,64.25
2023-03-03T15:39:26.909Z,63.99
2023-03-03T15:41:58.453Z,64.12
2023-03-03T15:44:28.047Z,64.15
2023-03-03T15:47:00.888Z,64.20
2023-03-03T15:49:35.684Z,64.68
2023-03-03T15:52:12.499Z,64.52
2023-03-03T15:54:42.093Z,64.61
2023-03-03T15:57:16.425Z,64.49
2023-03-03T15:59:58.875Z,64.64
2023-03-03T16:02:26.675Z,64.64
2023-03-03T16:04:55.755Z,65.25
2023-03-03T16:07:27.327Z,65.25
2023-03-03T16:09:57.484Z,65.22
2023-03-03T16:12:28.033Z,65.50
2023-03-03T16:14:59.076Z,65.47
2023-03-03T16:17:27.896Z,65.48
2023-03-03T16:19:57.975Z,65.58
2023-03-03T16:22:28.523Z,65.71
2023-03-03T16:24:59.597Z,65.13
2023-03-03T16:27:29.275Z,65.28
2023-03-03T16:30:05.451Z,65.56
2023-03-03T16:32:34.491Z,65.55
2023-03-03T16:35:03.238Z,64.84
2023-03-03T16:37:31.674Z,65.49
2023-03-03T16:40:01.884Z,65.92
2023-03-03T16:42:31.271Z,65.58
2023-03-03T16:45:02.364Z,65.27
2023-03-03T16:47:34.780Z,65.63
2023-03-03T16:50:06.870Z,66.57
2023-03-03T16:52:35.272Z,65.89
2023-03-03T16:55:04.444Z,65.39
2023-03-03T16:57:34.466Z,66.04
2023-03-03T17:00:04.869Z,65.71
2023-03-03T17:02:50.239Z,65.29
2023-03-03T17:05:19.520Z,64.89
2023-03-03T17:07:50.163Z,64.39
2023-03-03T17:10:18.847Z,64.91
2023-03-03T17:12:58.452Z,64.69
2023-03-03T17:15:35.587Z,64.89
2023-03-03T17:18:05.393Z,64.48
2023-03-03T17:20:33.985Z,64.88
2023-03-03T17:23:12.351Z,64.73
2023-03-03T17:25:41.598Z,64.41
2023-03-03T17:28:13.417Z,65.01
2023-03-03T17:30:42.932Z,65.03
2023-03-03T17:33:21.069Z,65.00
2023-03-03T17:36:07.235Z,65.18
2023-03-03T17:38:37.262Z,65.03
2023-03-03T17:41:05.325Z,65.25
2023-03-03T17:43:35.522Z,65.82
2023-03-03T17:46:03.630Z,65.08
2023-03-03T17:48:36.743Z,64.99
2023-03-03T17:51:11.330Z,65.12
2023-03-03T17:53:44.066Z,64.97
2023-03-03T17:56:17.538Z,65.36
2023-03-03T17:58:51.113Z,65.12
2023-03-03T18:01:21.498Z,65.18
2023-03-03T18:03:56.066Z,64.97
2023-03-03T18:06:30.726Z,64.48
2023-03-03T18:09:13.339Z,64.96
2023-03-03T18:11:59.931Z,65.35
2023-03-03T18:14:42.402Z,64.89
2023-03-03T18:17:14.811Z,65.12
2023-03-03T18:19:56.500Z,65.23
2023-03-03T18:22:25.481Z,65.22
2023-03-03T18:24:57.347Z,64.81
2023-03-03T18:27:32.273Z,65.07
2023-03-03T18:30:17.503Z,65.50
2023-03-03T18:32:48.374Z,65.33
2023-03-03T18:35:25.800Z,65.36
2023-03-03T18:37:53.540Z,65.52
2023-03-03T18:40:22.937Z,65.49
2023-03-03T18:42:53.804Z,65.70
2023-03-03T18:45:45.072Z,65.40
2023-03-03T18:48:14.493Z,65.59
2023-03-03T18:50:42.352Z,65.76
2023-03-03T18:53:13.782Z,65.78
2023-03-03T18:55:42.053Z,65.43
2023-03-03T18:58:28.337Z,65.54
2023-03-03T19:00:56.611Z,65.33
2023-03-03T19:03:34.292Z,65.72
2023-03-03T19:06:02.635Z,65.77
2023-03-03T19:08:31.125Z,65.31
2023-03-03T19:10:59.785Z,66.00
2023-03-03T19:13:49.180Z,66.68
2023-03-03T19:16:30.721Z,66.40
2023-03-03T19:19:16.117Z,66.14
2023-03-03T19:21:47.966Z,65.65
2023-03-03T19:24:26.664Z,65.69
2023-03-03T19:26:59.876Z,65.66
2023-03-03T19:29:33.112Z,65.78
2023-03-03T19:32:05.269Z,66.19
2023-03-03T19:34:33.854Z,66.22
2023-03-03T19:37:04.106Z,66.60
2023-03-03T19:39:39.438Z,65.84
2023-03-03T19:42:08.268Z,65.58
2023-03-03T19:44:40.410Z,66.52
2023-03-03T19:47:09.587Z,65.88
2023-03-03T19:49:44.826Z,66.49
2023-03-03T19:52:14.981Z,66.20
2023-03-03T19:54:58.615Z,66.39
2023-03-03T19:57:29.580Z,66.21
2023-03-03T19:59:58.040Z,66.17
2023-03-03T20:02:28.207Z,66.06
2023-03-03T20:04:58.446Z,66.65
2023-03-03T20:07:31.204Z,66.16
2023-03-03T20:10:01.241Z,66.32
2023-03-03T20:12:34.717Z,66.08
2023-03-03T20:15:06.135Z,67.32
2023-03-03T20:17:40.015Z,66.25
2023-03-03T20:20:09.738Z,66.58
2023-03-03T20:22:41.529Z,66.64
2023-03-03T20:25:14.380Z,66.36
2023-03-03T20:27:46.756Z,66.40
2023-03-03T20:30:17.907Z,66.29
2023-03-03T20:32:58.373Z,66.45
2023-03-03T20:35:28.739Z,66.85
2023-03-03T20:37:58.857Z,66.57
2023-03-03T20:40:30.763Z,66.85
2023-03-03T20:42:59.584Z,66.77
2023-03-03T20:45:28.973Z,65.86
2023-03-03T20:47:59.500Z,65.96
2023-03-03T20:50:28.693Z,66.59
2023-03-03T20:53:02.115Z,66.78
2023-03-03T20:55:31.492Z,66.92
2023-03-03T20:58:00.783Z,66.68
2023-03-03T21:00:30.296Z,66.89
2023-03-03T21:03:00.935Z,67.07
2023-03-03T21:05:29.155Z,67.05
2023-03-03T21:07:57.596Z,66.89
2023-03-03T21:10:27.348Z,67.12
2023-03-03T21:12:55.030Z,66.88
2023-03-03T21:15:24.417Z,67.67
2023-03-03T21:17:51.913Z,67.22
2023-03-03T21:20:20.391Z,67.61
2023-03-03T21:22:47.857Z,67.25
2023-03-03T21:25:30.234Z,67.19
2023-03-03T21:28:12.655Z,67.01
2023-03-03T21:30:55.080Z,66.83
2023-03-03T21:33:41.478Z,66.85
2023-03-03T21:36:10.407Z,66.92
2023-03-03T21:38:38.995Z,67.21
2023-03-03T21:41:06.618Z,67.34
2023-03-03T21:43:34.848Z,66.91
2023-03-03T21:46:02.454Z,66.69
2023-03-03T21:48:29.995Z,68.24
2023-03-03T21:50:57.461Z,67.96
2023-03-03T21:53:26.637Z,67.51
2023-03-03T21:55:54.379Z,67.54
2023-03-03T21:58:21.848Z,67.29
2023-03-03T22:00:49.280Z,67.69
2023-03-03T22:03:18.683Z,67.69
2023-03-03T22:05:46.175Z,67.44
2023-03-03T22:08:13.711Z,67.61
2023-03-03T22:10:42.590Z,66.84
2023-03-03T22:13:10.033Z,67.32
2023-03-03T22:15:37.480Z,68.10
2023-03-03T22:18:05.159Z,67.76
2023-03-03T22:20:32.687Z,68.23
2023-03-03T22:23:00.179Z,67.41
2023-03-03T22:25:27.675Z,67.83
2023-03-03T22:27:56.547Z,66.78
2023-03-03T22:30:24.044Z,67.50
2023-03-03T22:32:54.639Z,67.39
2023-03-03T22:35:22.362Z,68.06
2023-03-03T22:37:49.911Z,68.50
2023-03-03T22:40:17.759Z,68.12
2023-03-03T22:42:45.275Z,68.01
2023-03-03T22:45:14.354Z,68.77
2023-03-03T22:47:41.867Z,68.19
2023-03-03T22:50:10.090Z,68.39
2023-03-03T22:52:37.596Z,67.87
2023-03-03T22:55:05.496Z,68.22
2023-03-03T22:57:32.952Z,67.78
2023-03-03T23:00:02.370Z,67.92
2023-03-03T23:02:31.426Z,68.00
2023-03-03T23:05:01.689Z,67.83
2023-03-03T23:07:29.368Z,67.92
2023-03-03T23:09:57.015Z,67.53
2023-03-03T23:12:24.610Z,66.80
2023-03-03T23:14:52.118Z,67.86
2023-03-03T23:17:19.652Z,66.64
2023-03-03T23:19:49.051Z,68.14
2023-03-03T23:22:16.759Z,67.70
2023-03-03T23:24:44.226Z,68.16
2023-03-03T23:27:12.317Z,67.89
2023-03-03T23:29:39.875Z,67.61
2023-03-03T23:32:07.477Z,67.77
2023-03-03T23:34:34.985Z,66.67
2023-03-03T23:37:03.906Z,67.04
2023-03-03T23:39:31.413Z,67.61
2023-03-03T23:41:58.915Z,67.14
2023-03-03T23:44:26.411Z,66.82
2023-03-03T23:46:54.448Z,67.28
2023-03-03T23:49:21.996Z,67.20
2023-03-03T23:51:49.517Z,66.79
2023-03-03T23:54:18.340Z,66.82
2023-03-03T23:56:45.866Z,67.10
2023-03-03T23:59:13.363Z,67.21
